Southern Ontario METAR Reports

CYSN - St.Catharines
Updated: 01/21/2020 3:00pm
Mostly cloudy
Mostly cloudy
 Wind from W
Wind: W 20 km/h, Gust: 33 km/h
Temperature: -3°C
Wind Chill: -9°C
Dew Point: -9°C
Humidity: 64%
Barometer: 1031.5 hPa
Clouds: Mostly cloudy
Visibility: 24 km
Cloud details: Mostly cloudy 914 m
2020/01/21 20:00 CYSN 212000Z 26011G18KT 15SM BKN030 M03/M09 A3046 RMK SC7 SLP322
CYHM - Hamilton
Updated: 01/21/2020 3:00pm
Mostly cloudy
Mostly cloudy
 Wind from WSW
Wind: WSW 24 km/h
Temperature: -5°C
Wind Chill: -12°C
Dew Point: -10°C
Humidity: 68%
Barometer: 1030.8 hPa
Clouds: Mostly cloudy
Visibility: 24 km
Cloud details: Mostly cloudy 732 m
Mostly cloudy 3658 m
2020/01/21 20:00 CYHM 212000Z 25013KT 15SM BKN024 BKN120 M05/M10 A3044 RMK SC5AC2 SLP323
 
CYYZ - Toronto
Updated: 01/21/2020 3:00pm
Mostly cloudy
Mostly cloudy
 Wind from WSW
Wind: WSW 19 km/h
Temperature: -3°C
Wind Chill: -9°C
Dew Point: -8°C
Humidity: 69%
Barometer: 1030.1 hPa
Clouds: Mostly cloudy
Visibility: 24 km
Cloud details: Mostly cloudy 884 m
2020/01/21 20:00 CYYZ 212000Z 25010KT 15SM BKN029 M03/M08 A3042 RMK SC7 SLP313
CYKF - Waterloo
Updated: 01/21/2020 3:00pm
Overcast
Overcast
 Wind from WSW
Wind: WSW 22 km/h, Gust: 31 km/h
Temperature: -5°C
Wind Chill: -12°C
Dew Point: -9°C
Humidity: 74%
Barometer: 1029.8 hPa
Clouds: Overcast
Visibility: 14 km
Cloud details: Overcast 610 m
2020/01/21 20:00 CYKF 212000Z AUTO 25012G17KT 9SM OVC020 M05/M09 A3041 RMK SLP317
 
CYXU - London
Updated: 01/21/2020 3:00pm
Mostly cloudy
Mostly cloudy
 Wind from W
Wind: W 19 km/h
Temperature: -5°C
Wind Chill: -12°C
Dew Point: -11°C
Humidity: 63%
Barometer: 1031.2 hPa
Clouds: Mostly cloudy
Visibility: 24 km
Cloud details: Few Clouds 671 m
Mostly cloudy 6706 m
2020/01/21 20:00 CYXU 212000Z 26010KT 15SM FEW022 BKN220 M05/M11 A3045 RMK SC1CI6 SLP330
CYQG - Windsor
Updated: 01/21/2020 3:00pm
Clear
Clear
 Wind from SW
Wind: SW 20 km/h
Temperature: -3°C
Wind Chill: -9°C
Dew Point: -9°C
Humidity: 64%
Barometer: 1032.8 hPa
Clouds: Clear
Visibility: 14 km
2020/01/21 20:00 CYQG 212000Z AUTO 23011KT 9SM CLR M03/M09 A3050 RMK SLP340
 
CYZR - Sarnia
Updated: 01/21/2020 3:00pm
Few Clouds
Few Clouds
 Wind from WSW
Wind: WSW 11 km/h
Temperature: -2°C
Wind Chill: -6°C
Dew Point: -10°C
Humidity: 55%
Barometer: 1031.5 hPa
Clouds: Few Clouds
Visibility: 14 km
Cloud details: Few Clouds 7315 m
2020/01/21 20:00 CYZR 212000Z AUTO 25006KT 9SM FEW240 M02/M10 A3046 RMK SLP327
CYVV - Wiarton
Updated: 01/21/2020 3:00pm
Mostly cloudy
Mostly cloudy
 Wind from SW
Wind: SW 31 km/h, Gust: 48 km/h
Temperature: -2°C
Wind Chill: -9°C
Dew Point: -5°C
Humidity: 80%
Barometer: 1027.1 hPa
Clouds: Mostly cloudy
Visibility: 24 km
Cloud details: Mostly cloudy 488 m
2020/01/21 20:00 CYVV 212000Z 23017G26KT 15SM BKN016 M02/M05 A3033 RMK SC7 SLP285
 
CYPQ - Peterborough
Updated: 01/21/2020 3:00pm
Mostly cloudy
Mostly cloudy
 Wind from WSW
Wind: WSW 24 km/h, Gust: 35 km/h
Temperature: -3°C
Wind Chill: -9°C
Dew Point: -8°C
Humidity: 69%
Barometer: 1028.1 hPa
Clouds: Mostly cloudy
Visibility: 14 km
Cloud details: Mostly cloudy 884 m
Mostly cloudy 3048 m
Mostly cloudy 3658 m
2020/01/21 20:00 CYPQ 212000Z AUTO 24013G19KT 9SM BKN029 BKN100 BKN120 M03/M08 A3036 RMK SLP299
CYTR - Trenton
Updated: 01/21/2020 3:00pm
Overcast
Overcast
 Wind from SW
Wind: SW 13 km/h
Temperature: -4°C
Wind Chill: -9°C
Dew Point: -10°C
Humidity: 63%
Barometer: 1029.5 hPa
Clouds: Overcast
Visibility: 24 km
Cloud details: Overcast 914 m
2020/01/21 20:00 CYTR 212000Z 22007KT 15SM OVC030 M04/M10 A3040 RMK SC8 SLP302